sensor_id;sensor_type;location;lat;lon;timestamp;temperature;humidity
37300;DHT22;23184;51.902;12.836;2022-08-21T00:01:20;18.20;99.90
37300;DHT22;23184;51.902;12.836;2022-08-21T00:03:47;18.20;99.90
37300;DHT22;23184;51.902;12.836;2022-08-21T00:06:12;18.20;99.90
37300;DHT22;23184;51.902;12.836;2022-08-21T00:08:38;18.20;99.90
37300;DHT22;23184;51.902;12.836;2022-08-21T00:11:04;18.20;99.90
37300;DHT22;23184;51.902;12.836;2022-08-21T00:13:30;18.20;99.90
37300;DHT22;23184;51.902;12.836;2022-08-21T00:15:58;18.20;99.90
37300;DHT22;23184;51.902;12.836;2022-08-21T00:18:24;18.20;99.90
37300;DHT22;23184;51.902;12.836;2022-08-21T00:20:50;18.20;99.90
37300;DHT22;23184;51.902;12.836;2022-08-21T00:23:15;18.20;99.90
37300;DHT22;23184;51.902;12.836;2022-08-21T00:25:42;18.30;99.90
37300;DHT22;23184;51.902;12.836;2022-08-21T00:28:08;18.30;99.90
37300;DHT22;23184;51.902;12.836;2022-08-21T00:30:34;18.30;99.90
37300;DHT22;23184;51.902;12.836;2022-08-21T00:33:00;18.30;99.90
37300;DHT22;23184;51.902;12.836;2022-08-21T00:35:32;18.40;99.90
37300;DHT22;23184;51.902;12.836;2022-08-21T00:37:58;18.50;99.90
37300;DHT22;23184;51.902;12.836;2022-08-21T00:40:34;18.50;99.90
37300;DHT22;23184;51.902;12.836;2022-08-21T00:43:04;18.60;99.90
37300;DHT22;23184;51.902;12.836;2022-08-21T00:45:29;18.70;99.90
37300;DHT22;23184;51.902;12.836;2022-08-21T00:47:55;18.80;99.90
37300;DHT22;23184;51.902;12.836;2022-08-21T00:50:22;18.80;99.90
37300;DHT22;23184;51.902;12.836;2022-08-21T00:52:51;18.90;99.90
37300;DHT22;23184;51.902;12.836;2022-08-21T00:55:18;18.90;99.90
37300;DHT22;23184;51.902;12.836;2022-08-21T00:57:49;18.90;99.90
37300;DHT22;23184;51.902;12.836;2022-08-21T01:00:20;18.90;99.90
37300;DHT22;23184;51.902;12.836;2022-08-21T01:02:46;18.90;99.90
37300;DHT22;23184;51.902;12.836;2022-08-21T01:05:12;18.90;99.90
37300;DHT22;23184;51.902;12.836;2022-08-21T01:07:38;18.70;99.90
37300;DHT22;23184;51.902;12.836;2022-08-21T01:10:06;18.60;99.90
37300;DHT22;23184;51.902;12.836;2022-08-21T01:12:32;18.50;99.90
37300;DHT22;23184;51.902;12.836;2022-08-21T01:14:58;18.40;99.90
37300;DHT22;23184;51.902;12.836;2022-08-21T01:17:24;18.30;99.90
37300;DHT22;23184;51.902;12.836;2022-08-21T01:19:51;18.30;99.90
37300;DHT22;23184;51.902;12.836;2022-08-21T01:22:17;18.20;99.90
37300;DHT22;23184;51.902;12.836;2022-08-21T01:24:43;18.20;99.90
37300;DHT22;23184;51.902;12.836;2022-08-21T01:27:08;18.20;99.90
37300;DHT22;23184;51.902;12.836;2022-08-21T01:29:46;18.20;99.90
37300;DHT22;23184;51.902;12.836;2022-08-21T01:32:16;18.20;99.90
37300;DHT22;23184;51.902;12.836;2022-08-21T01:34:44;18.20;99.90
37300;DHT22;23184;51.902;12.836;2022-08-21T01:37:10;18.30;99.90
37300;DHT22;23184;51.902;12.836;2022-08-21T01:39:36;18.40;99.90
37300;DHT22;23184;51.902;12.836;2022-08-21T01:42:03;18.40;99.90
37300;DHT22;23184;51.902;12.836;2022-08-21T01:44:28;18.40;99.90
37300;DHT22;23184;51.902;12.836;2022-08-21T01:46:54;18.40;99.90
37300;DHT22;23184;51.902;12.836;2022-08-21T01:49:20;18.40;99.90
37300;DHT22;23184;51.902;12.836;2022-08-21T01:51:46;18.40;99.90
37300;DHT22;23184;51.902;12.836;2022-08-21T01:54:12;18.30;99.90
37300;DHT22;23184;51.902;12.836;2022-08-21T01:56:43;18.30;99.90
37300;DHT22;23184;51.902;12.836;2022-08-21T01:59:10;18.20;99.90
37300;DHT22;23184;51.902;12.836;2022-08-21T02:01:36;18.20;99.90
37300;DHT22;23184;51.902;12.836;2022-08-21T02:04:02;18.10;99.90
37300;DHT22;23184;51.902;12.836;2022-08-21T02:06:28;18.10;99.90
37300;DHT22;23184;51.902;12.836;2022-08-21T02:08:53;18.00;99.90
37300;DHT22;23184;51.902;12.836;2022-08-21T02:11:19;17.90;99.90
37300;DHT22;23184;51.902;12.836;2022-08-21T02:13:45;17.90;99.90
37300;DHT22;23184;51.902;12.836;2022-08-21T02:16:11;17.90;99.90
37300;DHT22;23184;51.902;12.836;2022-08-21T02:18:37;17.90;99.90
37300;DHT22;23184;51.902;12.836;2022-08-21T02:21:04;17.80;99.90
37300;DHT22;23184;51.902;12.836;2022-08-21T02:26:01;17.70;99.90
37300;DHT22;23184;51.902;12.836;2022-08-21T02:28:26;17.60;99.90
37300;DHT22;23184;51.902;12.836;2022-08-21T02:30:53;17.60;99.90
37300;DHT22;23184;51.902;12.836;2022-08-21T02:33:19;17.50;99.90
37300;DHT22;23184;51.902;12.836;2022-08-21T02:35:46;17.60;99.90
37300;DHT22;23184;51.902;12.836;2022-08-21T02:38:16;17.60;99.90
37300;DHT22;23184;51.902;12.836;2022-08-21T02:40:45;17.50;99.90
37300;DHT22;23184;51.902;12.836;2022-08-21T02:43:11;17.50;99.90
37300;DHT22;23184;51.902;12.836;2022-08-21T02:45:37;17.40;99.90
37300;DHT22;23184;51.902;12.836;2022-08-21T02:48:06;17.40;99.90
37300;DHT22;23184;51.902;12.836;2022-08-21T02:50:57;17.30;99.90
37300;DHT22;23184;51.902;12.836;2022-08-21T02:53:24;17.20;99.90
37300;DHT22;23184;51.902;12.836;2022-08-21T02:55:50;17.10;99.90
37300;DHT22;23184;51.902;12.836;2022-08-21T02:58:20;17.10;99.90
37300;DHT22;23184;51.902;12.836;2022-08-21T03:00:47;17.00;99.90
37300;DHT22;23184;51.902;12.836;2022-08-21T03:03:12;17.00;99.90
37300;DHT22;23184;51.902;12.836;2022-08-21T03:05:40;17.00;99.90
37300;DHT22;23184;51.902;12.836;2022-08-21T03:08:07;16.90;99.90
37300;DHT22;23184;51.902;12.836;2022-08-21T03:10:40;16.80;99.90
37300;DHT22;23184;51.902;12.836;2022-08-21T03:13:07;16.80;99.90
37300;DHT22;23184;51.902;12.836;2022-08-21T03:15:33;16.70;99.90
37300;DHT22;23184;51.902;12.836;2022-08-21T03:17:59;16.70;99.90
37300;DHT22;23184;51.902;12.836;2022-08-21T03:20:26;16.70;99.90
37300;DHT22;23184;51.902;12.836;2022-08-21T03:22:53;16.70;99.90
37300;DHT22;23184;51.902;12.836;2022-08-21T03:25:21;16.70;99.90
37300;DHT22;23184;51.902;12.836;2022-08-21T03:27:47;16.70;99.90
37300;DHT22;23184;51.902;12.836;2022-08-21T03:30:15;16.70;99.90
37300;DHT22;23184;51.902;12.836;2022-08-21T03:32:41;16.80;99.90
37300;DHT22;23184;51.902;12.836;2022-08-21T03:35:08;16.80;99.90
37300;DHT22;23184;51.902;12.836;2022-08-21T03:37:34;16.70;99.90
37300;DHT22;23184;51.902;12.836;2022-08-21T03:39:59;16.70;99.90
37300;DHT22;23184;51.902;12.836;2022-08-21T03:42:25;16.60;99.90
37300;DHT22;23184;51.902;12.836;2022-08-21T03:44:51;16.60;99.90
37300;DHT22;23184;51.902;12.836;2022-08-21T03:47:16;16.50;99.90
37300;DHT22;23184;51.902;12.836;2022-08-21T03:49:42;16.50;99.90
37300;DHT22;23184;51.902;12.836;2022-08-21T03:52:07;16.50;99.90
37300;DHT22;23184;51.902;12.836;2022-08-21T03:54:33;16.40;99.90
37300;DHT22;23184;51.902;12.836;2022-08-21T03:56:59;16.40;99.90
37300;DHT22;23184;51.902;12.836;2022-08-21T03:59:25;16.30;99.90
37300;DHT22;23184;51.902;12.836;2022-08-21T04:01:56;16.30;99.90
37300;DHT22;23184;51.902;12.836;2022-08-21T04:04:22;16.30;99.90
37300;DHT22;23184;51.902;12.836;2022-08-21T04:06:48;16.30;99.90
37300;DHT22;23184;51.902;12.836;2022-08-21T04:09:15;16.30;99.90
37300;DHT22;23184;51.902;12.836;2022-08-21T04:11:40;16.30;99.90
37300;DHT22;23184;51.902;12.836;2022-08-21T04:14:06;16.30;99.90
37300;DHT22;23184;51.902;12.836;2022-08-21T04:16:31;16.20;99.90
37300;DHT22;23184;51.902;12.836;2022-08-21T04:18:57;16.20;99.90
37300;DHT22;23184;51.902;12.836;2022-08-21T04:21:23;16.20;99.90
37300;DHT22;23184;51.902;12.836;2022-08-21T04:23:49;16.20;99.90
37300;DHT22;23184;51.902;12.836;2022-08-21T04:26:14;16.20;99.90
37300;DHT22;23184;51.902;12.836;2022-08-21T04:28:40;16.20;99.90
37300;DHT22;23184;51.902;12.836;2022-08-21T04:31:06;16.20;99.90
37300;DHT22;23184;51.902;12.836;2022-08-21T04:33:32;16.20;99.90
37300;DHT22;23184;51.902;12.836;2022-08-21T04:35:57;16.20;99.90
37300;DHT22;23184;51.902;12.836;2022-08-21T04:38:22;16.20;99.90
37300;DHT22;23184;51.902;12.836;2022-08-21T04:40:49;16.30;99.90
37300;DHT22;23184;51.902;12.836;2022-08-21T04:43:15;16.30;99.90
37300;DHT22;23184;51.902;12.836;2022-08-21T04:45:43;16.30;99.90
37300;DHT22;23184;51.902;12.836;2022-08-21T04:48:11;16.40;99.90
37300;DHT22;23184;51.902;12.836;2022-08-21T04:50:55;16.40;99.90
37300;DHT22;23184;51.902;12.836;2022-08-21T04:53:49;16.40;99.90
37300;DHT22;23184;51.902;12.836;2022-08-21T04:56:18;16.50;99.90
37300;DHT22;23184;51.902;12.836;2022-08-21T04:58:45;16.50;99.90
37300;DHT22;23184;51.902;12.836;2022-08-21T05:01:15;16.50;99.90
37300;DHT22;23184;51.902;12.836;2022-08-21T05:03:43;16.50;99.90
37300;DHT22;23184;51.902;12.836;2022-08-21T05:06:10;16.60;99.90
37300;DHT22;23184;51.902;12.836;2022-08-21T05:08:37;16.60;99.90
37300;DHT22;23184;51.902;12.836;2022-08-21T05:11:04;16.60;99.90
37300;DHT22;23184;51.902;12.836;2022-08-21T05:13:29;16.70;99.90
37300;DHT22;23184;51.902;12.836;2022-08-21T05:15:55;16.70;99.90
37300;DHT22;23184;51.902;12.836;2022-08-21T05:18:21;16.80;99.90
37300;DHT22;23184;51.902;12.836;2022-08-21T05:20:46;16.80;99.90
37300;DHT22;23184;51.902;12.836;2022-08-21T05:23:13;16.90;99.90
37300;DHT22;23184;51.902;12.836;2022-08-21T05:25:39;16.90;99.90
37300;DHT22;23184;51.902;12.836;2022-08-21T05:28:05;17.00;99.90
37300;DHT22;23184;51.902;12.836;2022-08-21T05:30:31;17.10;99.90
37300;DHT22;23184;51.902;12.836;2022-08-21T05:32:59;17.20;99.90
37300;DHT22;23184;51.902;12.836;2022-08-21T05:35:25;17.30;99.90
37300;DHT22;23184;51.902;12.836;2022-08-21T05:37:50;17.40;99.90
37300;DHT22;23184;51.902;12.836;2022-08-21T05:40:16;17.50;99.90
37300;DHT22;23184;51.902;12.836;2022-08-21T05:42:41;17.70;99.90
37300;DHT22;23184;51.902;12.836;2022-08-21T05:45:07;17.70;99.90
37300;DHT22;23184;51.902;12.836;2022-08-21T05:47:33;17.80;99.90
37300;DHT22;23184;51.902;12.836;2022-08-21T05:49:58;17.90;99.90
37300;DHT22;23184;51.902;12.836;2022-08-21T05:52:23;18.00;99.90
37300;DHT22;23184;51.902;12.836;2022-08-21T05:54:49;18.10;99.90
37300;DHT22;23184;51.902;12.836;2022-08-21T05:57:15;18.20;99.90
37300;DHT22;23184;51.902;12.836;2022-08-21T05:59:41;18.20;99.90
37300;DHT22;23184;51.902;12.836;2022-08-21T06:02:06;18.30;99.90
37300;DHT22;23184;51.902;12.836;2022-08-21T06:04:37;18.30;99.90
37300;DHT22;23184;51.902;12.836;2022-08-21T06:07:03;18.40;99.90
37300;DHT22;23184;51.902;12.836;2022-08-21T06:09:29;18.50;99.90
37300;DHT22;23184;51.902;12.836;2022-08-21T06:11:54;18.50;99.90
37300;DHT22;23184;51.902;12.836;2022-08-21T06:14:19;18.60;99.90
37300;DHT22;23184;51.902;12.836;2022-08-21T06:16:45;18.70;99.90
37300;DHT22;23184;51.902;12.836;2022-08-21T06:19:11;18.60;99.90
37300;DHT22;23184;51.902;12.836;2022-08-21T06:21:36;18.70;99.90
37300;DHT22;23184;51.902;12.836;2022-08-21T06:24:02;18.80;99.90
37300;DHT22;23184;51.902;12.836;2022-08-21T06:26:28;18.90;99.90
37300;DHT22;23184;51.902;12.836;2022-08-21T06:28:55;19.00;99.90
37300;DHT22;23184;51.902;12.836;2022-08-21T06:31:23;19.00;99.90
37300;DHT22;23184;51.902;12.836;2022-08-21T06:33:49;19.10;99.90
37300;DHT22;23184;51.902;12.836;2022-08-21T06:36:14;19.20;99.90
37300;DHT22;23184;51.902;12.836;2022-08-21T06:38:40;19.20;99.90
37300;DHT22;23184;51.902;12.836;2022-08-21T06:41:06;19.40;99.90
37300;DHT22;23184;51.902;12.836;2022-08-21T06:43:32;19.50;99.90
37300;DHT22;23184;51.902;12.836;2022-08-21T06:45:57;19.60;99.90
37300;DHT22;23184;51.902;12.836;2022-08-21T06:48:23;19.70;99.90
37300;DHT22;23184;51.902;12.836;2022-08-21T06:50:49;19.80;99.90
37300;DHT22;23184;51.902;12.836;2022-08-21T06:53:18;19.90;99.90
37300;DHT22;23184;51.902;12.836;2022-08-21T06:55:44;20.10;99.90
37300;DHT22;23184;51.902;12.836;2022-08-21T06:58:10;20.20;99.90
37300;DHT22;23184;51.902;12.836;2022-08-21T07:00:39;20.40;99.90
37300;DHT22;23184;51.902;12.836;2022-08-21T07:03:05;20.60;99.90
37300;DHT22;23184;51.902;12.836;2022-08-21T07:05:30;20.70;99.90
37300;DHT22;23184;51.902;12.836;2022-08-21T07:07:56;20.90;99.90
37300;DHT22;23184;51.902;12.836;2022-08-21T07:10:23;21.00;99.90
37300;DHT22;23184;51.902;12.836;2022-08-21T07:12:49;21.20;99.90
37300;DHT22;23184;51.902;12.836;2022-08-21T07:15:15;21.40;99.90
37300;DHT22;23184;51.902;12.836;2022-08-21T07:17:40;21.60;99.90
37300;DHT22;23184;51.902;12.836;2022-08-21T07:20:06;21.90;99.90
37300;DHT22;23184;51.902;12.836;2022-08-21T07:22:33;22.10;99.90
37300;DHT22;23184;51.902;12.836;2022-08-21T07:25:00;22.20;99.90
37300;DHT22;23184;51.902;12.836;2022-08-21T07:27:25;22.50;99.90
37300;DHT22;23184;51.902;12.836;2022-08-21T07:29:51;22.70;99.90
37300;DHT22;23184;51.902;12.836;2022-08-21T07:32:17;22.90;99.90
37300;DHT22;23184;51.902;12.836;2022-08-21T07:34:42;23.00;99.90
37300;DHT22;23184;51.902;12.836;2022-08-21T07:37:08;23.10;99.90
37300;DHT22;23184;51.902;12.836;2022-08-21T07:39:33;23.30;99.90
37300;DHT22;23184;51.902;12.836;2022-08-21T07:41:59;23.30;99.90
37300;DHT22;23184;51.902;12.836;2022-08-21T07:44:24;23.40;99.90
37300;DHT22;23184;51.902;12.836;2022-08-21T07:46:50;23.30;99.90
37300;DHT22;23184;51.902;12.836;2022-08-21T07:49:15;23.50;99.90
37300;DHT22;23184;51.902;12.836;2022-08-21T07:51:41;23.80;99.90
37300;DHT22;23184;51.902;12.836;2022-08-21T07:54:07;23.90;99.90
37300;DHT22;23184;51.902;12.836;2022-08-21T07:56:33;24.10;99.90
37300;DHT22;23184;51.902;12.836;2022-08-21T07:58:59;24.30;99.90
37300;DHT22;23184;51.902;12.836;2022-08-21T08:01:24;24.60;99.90
37300;DHT22;23184;51.902;12.836;2022-08-21T08:03:50;24.80;99.90
37300;DHT22;23184;51.902;12.836;2022-08-21T08:06:16;24.80;99.90
37300;DHT22;23184;51.902;12.836;2022-08-21T08:08:44;25.00;99.90
37300;DHT22;23184;51.902;12.836;2022-08-21T08:11:11;25.10;99.90
37300;DHT22;23184;51.902;12.836;2022-08-21T08:13:41;25.20;99.90
37300;DHT22;23184;51.902;12.836;2022-08-21T08:16:07;25.20;99.90
37300;DHT22;23184;51.902;12.836;2022-08-21T08:18:33;25.20;99.90
37300;DHT22;23184;51.902;12.836;2022-08-21T08:20:59;25.00;99.90
37300;DHT22;23184;51.902;12.836;2022-08-21T08:23:24;24.70;99.90
37300;DHT22;23184;51.902;12.836;2022-08-21T08:25:50;24.50;99.90
37300;DHT22;23184;51.902;12.836;2022-08-21T08:28:16;24.40;99.90
37300;DHT22;23184;51.902;12.836;2022-08-21T08:30:41;24.30;99.90
37300;DHT22;23184;51.902;12.836;2022-08-21T08:33:08;24.10;99.90
37300;DHT22;23184;51.902;12.836;2022-08-21T08:35:33;24.10;99.90
37300;DHT22;23184;51.902;12.836;2022-08-21T08:37:59;24.00;99.90
37300;DHT22;23184;51.902;12.836;2022-08-21T08:40:39;23.80;99.90
37300;DHT22;23184;51.902;12.836;2022-08-21T08:43:06;23.90;99.90
37300;DHT22;23184;51.902;12.836;2022-08-21T08:45:35;24.10;99.90
37300;DHT22;23184;51.902;12.836;2022-08-21T08:48:04;24.30;99.90
37300;DHT22;23184;51.902;12.836;2022-08-21T08:50:52;24.40;99.90
37300;DHT22;23184;51.902;12.836;2022-08-21T08:53:47;24.60;99.90
37300;DHT22;23184;51.902;12.836;2022-08-21T08:56:13;24.80;99.90
37300;DHT22;23184;51.902;12.836;2022-08-21T08:58:41;25.00;99.90
37300;DHT22;23184;51.902;12.836;2022-08-21T09:01:17;25.20;99.90
37300;DHT22;23184;51.902;12.836;2022-08-21T09:03:45;25.50;99.90
37300;DHT22;23184;51.902;12.836;2022-08-21T09:06:48;25.80;99.90
37300;DHT22;23184;51.902;12.836;2022-08-21T09:09:39;25.60;99.90
37300;DHT22;23184;51.902;12.836;2022-08-21T09:12:32;25.60;99.90
37300;DHT22;23184;51.902;12.836;2022-08-21T09:18:05;26.20;99.90
37300;DHT22;23184;51.902;12.836;2022-08-21T09:20:47;26.50;99.90
37300;DHT22;23184;51.902;12.836;2022-08-21T09:23:28;26.70;99.90
37300;DHT22;23184;51.902;12.836;2022-08-21T09:26:19;26.90;99.90
37300;DHT22;23184;51.902;12.836;2022-08-21T09:28:52;27.70;99.90
37300;DHT22;23184;51.902;12.836;2022-08-21T09:31:30;28.40;99.90
37300;DHT22;23184;51.902;12.836;2022-08-21T09:34:01;28.90;99.90
37300;DHT22;23184;51.902;12.836;2022-08-21T09:39:08;29.70;99.90
37300;DHT22;23184;51.902;12.836;2022-08-21T09:41:35;30.10;99.90
37300;DHT22;23184;51.902;12.836;2022-08-21T09:44:02;30.20;99.90
37300;DHT22;23184;51.902;12.836;2022-08-21T09:46:28;30.20;99.90
37300;DHT22;23184;51.902;12.836;2022-08-21T09:48:58;30.10;99.90
37300;DHT22;23184;51.902;12.836;2022-08-21T09:51:30;29.80;99.90
37300;DHT22;23184;51.902;12.836;2022-08-21T09:56:51;30.10;99.90
37300;DHT22;23184;51.902;12.836;2022-08-21T09:59:40;30.80;99.90
37300;DHT22;23184;51.902;12.836;2022-08-21T10:02:31;31.60;99.90
37300;DHT22;23184;51.902;12.836;2022-08-21T10:05:25;31.60;99.90
37300;DHT22;23184;51.902;12.836;2022-08-21T10:07:51;31.90;97.90
37300;DHT22;23184;51.902;12.836;2022-08-21T10:13:02;31.50;97.20
37300;DHT22;23184;51.902;12.836;2022-08-21T10:16:13;31.40;96.60
37300;DHT22;23184;51.902;12.836;2022-08-21T10:18:43;31.20;96.60
37300;DHT22;23184;51.902;12.836;2022-08-21T10:21:36;30.80;97.70
37300;DHT22;23184;51.902;12.836;2022-08-21T10:24:38;30.70;97.00
37300;DHT22;23184;51.902;12.836;2022-08-21T10:27:30;30.30;97.00
37300;DHT22;23184;51.902;12.836;2022-08-21T10:32:49;29.80;96.90
37300;DHT22;23184;51.902;12.836;2022-08-21T10:35:29;29.60;98.40
37300;DHT22;23184;51.902;12.836;2022-08-21T10:40:54;28.90;98.30
37300;DHT22;23184;51.902;12.836;2022-08-21T10:46:22;28.50;98.30
37300;DHT22;23184;51.902;12.836;2022-08-21T10:52:24;28.60;99.70
37300;DHT22;23184;51.902;12.836;2022-08-21T10:55:03;28.70;99.90
37300;DHT22;23184;51.902;12.836;2022-08-21T10:57:34;29.00;99.90
37300;DHT22;23184;51.902;12.836;2022-08-21T11:00:08;29.20;97.50
37300;DHT22;23184;51.902;12.836;2022-08-21T11:02:45;29.20;97.80
37300;DHT22;23184;51.902;12.836;2022-08-21T11:07:51;28.70;98.70
37300;DHT22;23184;51.902;12.836;2022-08-21T11:10:25;28.50;98.20
37300;DHT22;23184;51.902;12.836;2022-08-21T11:13:00;28.20;98.70
37300;DHT22;23184;51.902;12.836;2022-08-21T11:15:48;28.20;98.00
37300;DHT22;23184;51.902;12.836;2022-08-21T11:18:30;28.50;98.10
37300;DHT22;23184;51.902;12.836;2022-08-21T11:23:50;30.10;97.40
37300;DHT22;23184;51.902;12.836;2022-08-21T11:26:32;31.00;95.80
37300;DHT22;23184;51.902;12.836;2022-08-21T11:29:08;32.50;95.50
37300;DHT22;23184;51.902;12.836;2022-08-21T11:34:14;34.80;92.10
37300;DHT22;23184;51.902;12.836;2022-08-21T11:39:57;36.70;86.30
37300;DHT22;23184;51.902;12.836;2022-08-21T11:42:29;36.80;82.40
37300;DHT22;23184;51.902;12.836;2022-08-21T11:50:40;35.90;81.20
37300;DHT22;23184;51.902;12.836;2022-08-21T11:55:42;33.70;80.70
37300;DHT22;23184;51.902;12.836;2022-08-21T11:58:23;32.60;82.00
37300;DHT22;23184;51.902;12.836;2022-08-21T12:01:05;32.20;83.90
37300;DHT22;23184;51.902;12.836;2022-08-21T12:03:36;31.70;85.40
37300;DHT22;23184;51.902;12.836;2022-08-21T12:06:13;31.70;85.10
37300;DHT22;23184;51.902;12.836;2022-08-21T12:08:42;31.40;86.80
37300;DHT22;23184;51.902;12.836;2022-08-21T12:16:33;28.70;91.20
37300;DHT22;23184;51.902;12.836;2022-08-21T12:19:12;28.40;91.90
37300;DHT22;23184;51.902;12.836;2022-08-21T12:22:13;27.70;92.20
37300;DHT22;23184;51.902;12.836;2022-08-21T12:24:44;27.30;93.10
37300;DHT22;23184;51.902;12.836;2022-08-21T12:27:26;27.40;94.00
37300;DHT22;23184;51.902;12.836;2022-08-21T12:30:05;28.10;93.20
37300;DHT22;23184;51.902;12.836;2022-08-21T12:32:43;28.80;93.30
37300;DHT22;23184;51.902;12.836;2022-08-21T12:35:18;29.80;92.10
37300;DHT22;23184;51.902;12.836;2022-08-21T12:38:12;30.00;91.20
37300;DHT22;23184;51.902;12.836;2022-08-21T12:43:15;28.90;91.80
37300;DHT22;23184;51.902;12.836;2022-08-21T12:45:44;28.20;92.20
37300;DHT22;23184;51.902;12.836;2022-08-21T12:48:25;28.00;92.30
37300;DHT22;23184;51.902;12.836;2022-08-21T12:50:54;28.00;92.30
37300;DHT22;23184;51.902;12.836;2022-08-21T12:53:37;28.00;91.70
37300;DHT22;23184;51.902;12.836;2022-08-21T12:56:09;28.40;91.90
37300;DHT22;23184;51.902;12.836;2022-08-21T12:58:35;28.80;92.40
37300;DHT22;23184;51.902;12.836;2022-08-21T13:01:05;29.20;91.80
37300;DHT22;23184;51.902;12.836;2022-08-21T13:03:35;29.50;92.50
37300;DHT22;23184;51.902;12.836;2022-08-21T13:06:03;29.90;91.80
37300;DHT22;23184;51.902;12.836;2022-08-21T13:08:30;29.80;91.70
37300;DHT22;23184;51.902;12.836;2022-08-21T13:11:05;30.00;91.60
37300;DHT22;23184;51.902;12.836;2022-08-21T13:13:31;30.00;91.20
37300;DHT22;23184;51.902;12.836;2022-08-21T13:15:59;29.90;91.00
37300;DHT22;23184;51.902;12.836;2022-08-21T13:18:28;29.80;91.10
37300;DHT22;23184;51.902;12.836;2022-08-21T13:21:10;29.50;90.90
37300;DHT22;23184;51.902;12.836;2022-08-21T13:23:36;29.10;90.60
37300;DHT22;23184;51.902;12.836;2022-08-21T13:26:29;29.20;91.00
37300;DHT22;23184;51.902;12.836;2022-08-21T13:29:07;29.10;91.40
37300;DHT22;23184;51.902;12.836;2022-08-21T13:31:32;28.80;90.20
37300;DHT22;23184;51.902;12.836;2022-08-21T13:33:58;28.70;91.40
37300;DHT22;23184;51.902;12.836;2022-08-21T13:36:27;28.60;92.40
37300;DHT22;23184;51.902;12.836;2022-08-21T13:38:54;28.40;92.30
37300;DHT22;23184;51.902;12.836;2022-08-21T13:41:25;28.40;92.30
37300;DHT22;23184;51.902;12.836;2022-08-21T13:44:04;28.60;92.20
37300;DHT22;23184;51.902;12.836;2022-08-21T13:46:34;28.60;92.30
37300;DHT22;23184;51.902;12.836;2022-08-21T13:49:02;28.30;91.80
37300;DHT22;23184;51.902;12.836;2022-08-21T13:51:29;29.10;92.40
37300;DHT22;23184;51.902;12.836;2022-08-21T13:53:55;29.60;91.70
37300;DHT22;23184;51.902;12.836;2022-08-21T13:56:25;29.50;91.50
37300;DHT22;23184;51.902;12.836;2022-08-21T13:58:53;29.40;91.40
37300;DHT22;23184;51.902;12.836;2022-08-21T14:01:23;29.40;91.60
37300;DHT22;23184;51.902;12.836;2022-08-21T14:03:53;29.20;91.40
37300;DHT22;23184;51.902;12.836;2022-08-21T14:06:21;28.90;92.10
37300;DHT22;23184;51.902;12.836;2022-08-21T14:08:50;29.50;92.50
37300;DHT22;23184;51.902;12.836;2022-08-21T14:11:17;30.90;91.00
37300;DHT22;23184;51.902;12.836;2022-08-21T14:13:44;31.10;90.00
37300;DHT22;23184;51.902;12.836;2022-08-21T14:16:13;30.30;90.50
37300;DHT22;23184;51.902;12.836;2022-08-21T14:21:42;29.10;92.30
37300;DHT22;23184;51.902;12.836;2022-08-21T14:24:14;28.60;91.60
37300;DHT22;23184;51.902;12.836;2022-08-21T14:26:56;28.10;92.30
37300;DHT22;23184;51.902;12.836;2022-08-21T14:29:26;27.50;93.20
37300;DHT22;23184;51.902;12.836;2022-08-21T14:31:56;27.50;93.90
37300;DHT22;23184;51.902;12.836;2022-08-21T14:34:26;27.40;93.20
37300;DHT22;23184;51.902;12.836;2022-08-21T14:36:53;27.30;94.00
37300;DHT22;23184;51.902;12.836;2022-08-21T14:39:18;27.30;93.60
37300;DHT22;23184;51.902;12.836;2022-08-21T14:41:45;27.10;94.70
37300;DHT22;23184;51.902;12.836;2022-08-21T14:44:13;27.30;93.70
37300;DHT22;23184;51.902;12.836;2022-08-21T14:46:39;27.80;93.40
37300;DHT22;23184;51.902;12.836;2022-08-21T14:49:04;28.30;93.00
37300;DHT22;23184;51.902;12.836;2022-08-21T14:51:30;29.20;92.90
37300;DHT22;23184;51.902;12.836;2022-08-21T14:53:56;29.60;92.10
37300;DHT22;23184;51.902;12.836;2022-08-21T14:56:21;30.20;91.80
37300;DHT22;23184;51.902;12.836;2022-08-21T14:58:49;31.00;91.30
37300;DHT22;23184;51.902;12.836;2022-08-21T15:01:16;31.70;90.10
37300;DHT22;23184;51.902;12.836;2022-08-21T15:03:43;31.70;90.20
37300;DHT22;23184;51.902;12.836;2022-08-21T15:06:09;31.90;90.10
37300;DHT22;23184;51.902;12.836;2022-08-21T15:08:36;32.00;88.60
37300;DHT22;23184;51.902;12.836;2022-08-21T15:11:02;32.50;88.10
37300;DHT22;23184;51.902;12.836;2022-08-21T15:13:29;32.50;87.00
37300;DHT22;23184;51.902;12.836;2022-08-21T15:15:56;31.90;86.80
37300;DHT22;23184;51.902;12.836;2022-08-21T15:18:25;31.50;88.00
37300;DHT22;23184;51.902;12.836;2022-08-21T15:20:51;30.50;89.20
37300;DHT22;23184;51.902;12.836;2022-08-21T15:23:17;30.00;90.20
37300;DHT22;23184;51.902;12.836;2022-08-21T15:25:45;30.10;90.60
37300;DHT22;23184;51.902;12.836;2022-08-21T15:28:12;29.90;90.80
37300;DHT22;23184;51.902;12.836;2022-08-21T15:30:39;29.90;90.60
37300;DHT22;23184;51.902;12.836;2022-08-21T15:33:05;30.20;90.80
37300;DHT22;23184;51.902;12.836;2022-08-21T15:35:31;30.50;91.50
37300;DHT22;23184;51.902;12.836;2022-08-21T15:37:57;30.90;91.40
37300;DHT22;23184;51.902;12.836;2022-08-21T15:40:23;31.10;90.80
37300;DHT22;23184;51.902;12.836;2022-08-21T15:42:50;31.10;89.60
37300;DHT22;23184;51.902;12.836;2022-08-21T15:45:18;30.40;89.10
37300;DHT22;23184;51.902;12.836;2022-08-21T15:47:45;29.90;89.80
37300;DHT22;23184;51.902;12.836;2022-08-21T15:50:12;29.20;90.60
37300;DHT22;23184;51.902;12.836;2022-08-21T15:52:38;28.70;91.70
37300;DHT22;23184;51.902;12.836;2022-08-21T15:55:04;28.30;92.10
37300;DHT22;23184;51.902;12.836;2022-08-21T15:57:31;28.00;92.00
37300;DHT22;23184;51.902;12.836;2022-08-21T16:00:00;27.60;92.30
37300;DHT22;23184;51.902;12.836;2022-08-21T16:02:32;27.30;92.90
37300;DHT22;23184;51.902;12.836;2022-08-21T16:04:58;27.00;92.90
37300;DHT22;23184;51.902;12.836;2022-08-21T16:07:24;26.70;94.50
37300;DHT22;23184;51.902;12.836;2022-08-21T16:09:50;26.30;95.30
37300;DHT22;23184;51.902;12.836;2022-08-21T16:12:21;25.60;96.10
37300;DHT22;23184;51.902;12.836;2022-08-21T16:14:47;25.30;95.80
37300;DHT22;23184;51.902;12.836;2022-08-21T16:17:15;24.90;96.60
37300;DHT22;23184;51.902;12.836;2022-08-21T16:19:41;24.50;96.40
37300;DHT22;23184;51.902;12.836;2022-08-21T16:22:06;24.30;96.70
37300;DHT22;23184;51.902;12.836;2022-08-21T16:24:32;24.30;97.50